Terminal Aerodrome Forecast
Issued by NWS

Home | Current Version | Previous Version | Text Only | Print | Product List | Glossary Off
Versions: 1 2 3 4 5 6 7 8 9 10 11 12 13 14 15 16 17 18 19 20 21 22 23 24 25 26 27 28 29 30 31 32 33 34 35 36 37 38 39 40 41 42 43 44 45 46

000
FTUS43 KGRB 191700
TAFRHI
TAF
KRHI 191732Z 1918/2018 18003KT 6SM BR SCT012
      TEMPO 1918/1920 BKN012
     FM192000 19003KT P6SM OVC010
     FM200200 20003KT 3SM BR OVC005
     FM200900 19003KT 2SM BR OVC005
      TEMPO 2010/2014 1/2SM FG OVC002=

USA.gov is the U.S. government's official web portal to all federal, state and local government web resources and services.